createdAt,value
2019-06-26T00:00:36.458Z,101328.86
2019-06-26T00:03:08.017Z,101329.20
2019-06-26T00:05:38.237Z,101332.88
2019-06-26T00:08:08.424Z,101330.38
2019-06-26T00:10:38.932Z,101325.18
2019-06-26T00:13:22.085Z,101326.27
2019-06-26T00:15:41.658Z,101330.06
2019-06-26T00:18:12.430Z,101328.32
2019-06-26T00:20:43.659Z,101329.91
2019-06-26T00:23:13.913Z,101328.16
2019-06-26T00:25:45.274Z,101326.80
2019-06-26T00:28:15.504Z,101333.20
2019-06-26T00:30:45.746Z,101332.45
2019-06-26T00:33:17.589Z,101333.92
2019-06-26T00:35:50.818Z,101331.91
2019-06-26T00:38:22.119Z,101327.57
2019-06-26T00:40:52.350Z,101330.78
2019-06-26T00:43:22.573Z,101331.75
2019-06-26T00:45:52.794Z,101330.51
2019-06-26T00:48:22.981Z,101332.48
2019-06-26T00:50:53.214Z,101329.11
2019-06-26T00:53:23.455Z,101331.05
2019-06-26T00:55:55.293Z,101328.95
2019-06-26T00:58:25.582Z,101323.75
2019-06-26T01:00:57.221Z,101328.39
2019-06-26T01:03:27.585Z,101324.44
2019-06-26T01:05:57.859Z,101331.91
2019-06-26T01:08:28.060Z,101328.45
2019-06-26T01:10:58.587Z,101335.61
2019-06-26T01:13:28.846Z,101329.42
2019-06-26T01:15:59.081Z,101339.13
2019-06-26T01:18:29.328Z,101336.80
2019-06-26T01:20:59.680Z,101335.06
2019-06-26T01:23:30.288Z,101332.19
2019-06-26T01:26:00.666Z,101341.55
2019-06-26T01:28:31.477Z,101340.31
2019-06-26T01:31:01.710Z,101336.36
2019-06-26T01:33:31.885Z,101331.52
2019-06-26T01:36:02.136Z,101337.44
2019-06-26T01:38:32.342Z,101333.95
2019-06-26T01:41:02.667Z,101334.45
2019-06-26T01:43:32.893Z,101336.88
2019-06-26T01:46:03.237Z,101347.72
2019-06-26T01:48:36.305Z,101338.63
2019-06-26T01:51:06.665Z,101341.91
2019-06-26T01:53:37.103Z,101342.91
2019-06-26T01:56:07.341Z,101341.05
2019-06-26T01:58:37.530Z,101343.38
2019-06-26T02:01:07.771Z,101345.62
2019-06-26T02:03:41.077Z,101349.29
2019-06-26T02:06:11.327Z,101357.21
2019-06-26T02:08:41.625Z,101350.83
2019-06-26T02:11:11.924Z,101351.80
2019-06-26T02:13:42.105Z,101351.41
2019-06-26T02:16:12.335Z,101358.97
2019-06-26T02:18:47.055Z,101358.39
2019-06-26T02:21:17.304Z,101356.65
2019-06-26T02:23:47.814Z,101353.20
2019-06-26T02:26:18.060Z,101357.84
2019-06-26T02:28:48.260Z,101356.59
2019-06-26T02:31:19.362Z,101360.27
2019-06-26T02:33:49.982Z,101365.03
2019-06-26T02:36:21.805Z,101361.55
2019-06-26T02:38:53.110Z,101363.97
2019-06-26T02:41:23.445Z,101368.53
2019-06-26T02:44:04.321Z,101367.39
2019-06-26T02:46:39.397Z,101367.00
2019-06-26T02:49:10.441Z,101369.43
2019-06-26T02:51:40.685Z,101370.50
2019-06-26T02:54:11.361Z,101368.79
2019-06-26T02:56:45.022Z,101370.14
2019-06-26T02:59:17.077Z,101372.45
2019-06-26T03:01:47.290Z,101368.40
2019-06-26T03:04:17.564Z,101365.52
2019-06-26T03:06:49.776Z,101375.84
2019-06-26T03:09:22.860Z,101374.98
2019-06-26T03:11:54.810Z,101375.45
2019-06-26T03:14:27.918Z,101381.36
2019-06-26T03:16:58.098Z,101383.31
2019-06-26T03:19:31.216Z,101384.67
2019-06-26T03:22:03.070Z,101390.44
2019-06-26T03:24:36.512Z,101387.73
2019-06-26T03:27:09.761Z,101391.79
2019-06-26T03:29:41.555Z,101389.48
2019-06-26T03:32:11.725Z,101393.04
2019-06-26T03:34:43.791Z,101392.97
2019-06-26T03:37:18.763Z,101391.11
2019-06-26T03:39:48.990Z,101391.22
2019-06-26T03:42:19.202Z,101396.03
2019-06-26T03:44:49.373Z,101396.81
2019-06-26T03:47:19.586Z,101398.45
2019-06-26T03:49:51.324Z,101405.11
2019-06-26T03:52:23.576Z,101408.45
2019-06-26T03:54:59.114Z,101400.16
2019-06-26T03:57:35.253Z,101404.86
2019-06-26T04:00:04.228Z,101405.64
2019-06-26T04:02:34.570Z,101408.52
2019-06-26T04:05:05.178Z,101412.37
2019-06-26T04:07:35.325Z,101415.82
2019-06-26T04:10:07.728Z,101412.93
2019-06-26T04:12:37.857Z,101420.66
2019-06-26T04:15:08.287Z,101416.48
2019-06-26T04:17:40.025Z,101424.00
2019-06-26T04:20:12.918Z,101430.76
2019-06-26T04:22:43.317Z,101427.03
2019-06-26T04:25:19.477Z,101431.59
2019-06-26T04:28:06.341Z,101427.53
2019-06-26T04:30:36.363Z,101427.77
2019-06-26T04:33:06.557Z,101438.50
2019-06-26T04:35:39.319Z,101440.88
2019-06-26T04:38:09.801Z,101432.98
2019-06-26T04:40:42.893Z,101439.03
2019-06-26T04:43:13.117Z,101436.12
2019-06-26T04:45:57.585Z,101435.66
2019-06-26T04:48:17.579Z,101436.20
2019-06-26T04:50:47.783Z,101442.17
2019-06-26T04:53:20.282Z,101437.64
2019-06-26T04:55:53.130Z,101437.64
2019-06-26T04:58:23.543Z,101441.16
2019-06-26T05:00:53.724Z,101440.92
2019-06-26T05:03:23.921Z,101440.92
2019-06-26T05:05:54.098Z,101455.27
2019-06-26T05:08:24.375Z,101455.84
2019-06-26T05:10:55.684Z,101463.28
2019-06-26T05:13:25.840Z,101461.19
2019-06-26T05:15:56.061Z,101464.44
2019-06-26T05:18:26.236Z,101462.84
2019-06-26T05:20:59.376Z,101469.07
2019-06-26T05:23:29.507Z,101461.45
2019-06-26T05:25:59.579Z,101466.14
2019-06-26T05:28:29.796Z,101465.32
2019-06-26T05:30:59.994Z,101472.64
2019-06-26T05:33:30.098Z,101469.30
2019-06-26T05:36:00.249Z,101470.45
2019-06-26T05:38:30.362Z,101474.28
2019-06-26T05:41:00.507Z,101480.59
2019-06-26T05:43:30.820Z,101485.20
2019-06-26T05:46:01.069Z,101483.44
2019-06-26T05:48:31.141Z,101483.44
2019-06-26T05:51:01.449Z,101487.41
2019-06-26T05:53:31.555Z,101483.48
2019-06-26T05:56:01.664Z,101492.03
2019-06-26T05:58:32.797Z,101497.22
2019-06-26T06:01:05.017Z,101497.36
2019-06-26T06:03:35.366Z,101492.55
2019-06-26T06:06:05.676Z,101503.06
2019-06-26T06:08:36.019Z,101512.09
2019-06-26T06:11:06.198Z,101511.23
2019-06-26T06:13:37.444Z,101511.87
2019-06-26T06:16:07.593Z,101517.70
2019-06-26T06:18:37.765Z,101509.05
2019-06-26T06:21:07.854Z,101521.68
2019-06-26T06:23:38.008Z,101526.44
2019-06-26T06:26:08.075Z,101530.02
2019-06-26T06:28:38.227Z,101530.02
2019-06-26T06:31:10.944Z,101536.09
2019-06-26T06:33:41.167Z,101540.56
2019-06-26T06:36:11.245Z,101535.72
2019-06-26T06:38:41.463Z,101541.67
2019-06-26T06:41:11.545Z,101538.69
2019-06-26T06:43:41.662Z,101543.16
2019-06-26T06:46:11.883Z,101546.77
2019-06-26T06:48:45.530Z,101547.73
2019-06-26T06:51:16.803Z,101550.36
2019-06-26T06:53:46.921Z,101559.53
2019-06-26T06:56:17.393Z,101556.55
2019-06-26T06:58:47.502Z,101552.44
2019-06-26T07:01:18.024Z,101559.62
2019-06-26T07:03:48.111Z,101562.97
2019-06-26T07:06:19.749Z,101563.31
2019-06-26T07:08:50.959Z,101566.16
2019-06-26T07:11:21.217Z,101565.28
2019-06-26T07:13:51.603Z,101570.72
2019-06-26T07:16:21.716Z,101578.64
2019-06-26T07:18:56.815Z,101579.38
2019-06-26T07:21:26.902Z,101589.81
2019-06-26T07:23:57.025Z,101590.16
2019-06-26T07:26:27.129Z,101582.47
2019-06-26T07:28:57.266Z,101586.81
2019-06-26T07:31:27.372Z,101586.95
2019-06-26T07:33:57.496Z,101588.91
2019-06-26T07:36:27.624Z,101582.82
2019-06-26T07:39:00.679Z,101586.05
2019-06-26T07:41:32.439Z,101590.59
2019-06-26T07:44:02.553Z,101585.52
2019-06-26T07:46:32.609Z,101600.13
2019-06-26T07:49:02.721Z,101585.95
2019-06-26T07:51:32.776Z,101593.73
2019-06-26T07:54:02.878Z,101587.91
2019-06-26T07:56:35.092Z,101593.20
2019-06-26T07:59:08.179Z,101595.66
2019-06-26T08:01:38.256Z,101597.16
2019-06-26T08:04:08.470Z,101599.51
2019-06-26T08:06:40.047Z,101596.27
2019-06-26T08:09:10.197Z,101596.47
2019-06-26T08:11:40.346Z,101591.86
2019-06-26T08:14:10.538Z,101598.27
2019-06-26T08:16:40.839Z,101598.61
2019-06-26T08:19:11.067Z,101600.69
2019-06-26T08:21:41.188Z,101610.10
2019-06-26T08:24:11.425Z,101608.64
2019-06-26T08:26:41.581Z,101607.98
2019-06-26T08:29:12.756Z,101616.27
2019-06-26T08:31:42.955Z,101605.82
2019-06-26T08:34:13.224Z,101612.94
2019-06-26T08:36:43.487Z,101611.05
2019-06-26T08:39:15.433Z,101611.03
2019-06-26T08:41:45.600Z,101609.86
2019-06-26T08:44:15.933Z,101615.04
2019-06-26T08:46:46.223Z,101623.23
2019-06-26T08:49:25.531Z,101621.02
2019-06-26T08:51:48.278Z,101629.53
2019-06-26T08:54:18.408Z,101625.30
2019-06-26T08:56:49.726Z,101627.54
2019-06-26T08:59:20.794Z,101635.64
2019-06-26T09:01:50.941Z,101633.09
2019-06-26T09:04:21.089Z,101627.77
2019-06-26T09:06:51.259Z,101633.17
2019-06-26T09:09:25.078Z,101629.37
2019-06-26T09:11:55.284Z,101630.44
2019-06-26T09:14:25.492Z,101634.84
2019-06-26T09:16:55.706Z,101646.22
2019-06-26T09:19:25.883Z,101641.39
2019-06-26T09:21:56.127Z,101643.27
2019-06-26T09:24:26.327Z,101641.97
2019-06-26T09:26:56.518Z,101648.22
2019-06-26T09:29:27.257Z,101647.84
2019-06-26T09:32:00.253Z,101638.34
2019-06-26T09:34:30.540Z,101643.30
2019-06-26T09:37:00.790Z,101644.81
2019-06-26T09:39:31.040Z,101645.96
2019-06-26T09:42:01.287Z,101647.92
2019-06-26T09:44:31.471Z,101643.08
2019-06-26T09:47:02.658Z,101658.28
2019-06-26T09:49:33.985Z,101645.96
2019-06-26T09:52:06.980Z,101648.22
2019-06-26T09:54:40.294Z,101657.42
2019-06-26T09:57:10.866Z,101651.66
2019-06-26T09:59:42.665Z,101650.80
2019-06-26T10:02:14.911Z,101658.72
2019-06-26T10:04:45.104Z,101654.61
2019-06-26T10:07:15.326Z,101656.04
2019-06-26T10:09:45.729Z,101661.44
2019-06-26T10:12:17.259Z,101664.07
2019-06-26T10:14:48.203Z,101667.20
2019-06-26T10:17:19.681Z,101651.95
2019-06-26T10:19:49.879Z,101659.86
2019-06-26T10:22:20.091Z,101666.58
2019-06-26T10:24:50.298Z,101668.52
2019-06-26T10:27:20.541Z,101668.30
2019-06-26T10:29:50.881Z,101662.19
2019-06-26T10:32:21.050Z,101668.02
2019-06-26T10:34:51.275Z,101666.63
2019-06-26T10:37:23.075Z,101677.86
2019-06-26T10:39:53.258Z,101659.00
2019-06-26T10:42:23.725Z,101671.02
2019-06-26T10:44:53.865Z,101671.67
2019-06-26T10:47:24.258Z,101669.40
2019-06-26T10:49:54.448Z,101679.53
2019-06-26T10:52:24.789Z,101684.51
2019-06-26T10:54:55.988Z,101680.50
2019-06-26T10:57:26.179Z,101683.38
2019-06-26T10:59:58.828Z,101670.02
2019-06-26T11:02:29.041Z,101666.03
2019-06-26T11:04:59.237Z,101663.59
2019-06-26T11:07:31.210Z,101663.02
2019-06-26T11:10:07.237Z,101665.94
2019-06-26T11:12:37.411Z,101660.34
2019-06-26T11:15:08.038Z,101660.10
2019-06-26T11:17:39.815Z,101650.94
2019-06-26T11:20:11.851Z,101664.58
2019-06-26T11:22:42.163Z,101661.56
2019-06-26T11:25:12.360Z,101663.16
2019-06-26T11:27:42.554Z,101654.62
2019-06-26T11:30:13.346Z,101655.50
2019-06-26T11:32:43.493Z,101650.58
2019-06-26T11:35:13.804Z,101651.63
2019-06-26T11:37:45.488Z,101653.06
2019-06-26T11:40:20.062Z,101647.58
2019-06-26T11:42:50.271Z,101654.19
2019-06-26T11:45:20.640Z,101655.28
2019-06-26T11:47:50.792Z,101656.81
2019-06-26T11:50:22.386Z,101649.63
2019-06-26T11:52:52.525Z,101651.00
2019-06-26T11:55:23.252Z,101654.07
2019-06-26T11:57:53.433Z,101653.73
2019-06-26T12:00:27.280Z,101649.56
2019-06-26T12:02:57.524Z,101642.36
2019-06-26T12:05:30.182Z,101636.94
2019-06-26T12:08:02.216Z,101632.51
2019-06-26T12:10:32.872Z,101643.09
2019-06-26T12:13:04.484Z,101637.84
2019-06-26T12:15:34.776Z,101642.10
2019-06-26T12:18:04.954Z,101644.41
2019-06-26T12:20:35.135Z,101644.20
2019-06-26T12:23:06.378Z,101652.42
2019-06-26T12:25:36.578Z,101641.30
2019-06-26T12:28:06.904Z,101647.25
2019-06-26T12:30:37.095Z,101645.88
2019-06-26T12:33:07.341Z,101644.34
2019-06-26T12:35:37.671Z,101652.78
2019-06-26T12:38:07.886Z,101648.77
2019-06-26T12:40:38.085Z,101645.66
2019-06-26T12:43:08.332Z,101649.77
2019-06-26T12:45:38.561Z,101644.93
2019-06-26T12:48:09.029Z,101645.70
2019-06-26T12:50:39.334Z,101649.09
2019-06-26T12:53:09.478Z,101644.22
2019-06-26T12:55:41.185Z,101644.54
2019-06-26T12:58:13.977Z,101639.98
2019-06-26T13:00:43.271Z,101633.93
2019-06-26T13:03:14.724Z,101627.16
2019-06-26T13:05:44.918Z,101635.95
2019-06-26T13:08:15.061Z,101637.44
2019-06-26T13:10:49.951Z,101638.66
2019-06-26T13:13:18.101Z,101648.63
2019-06-26T13:15:50.889Z,101646.31
2019-06-26T13:18:21.234Z,101639.74
2019-06-26T13:20:53.398Z,101641.27
2019-06-26T13:23:25.432Z,101638.16
2019-06-26T13:25:55.617Z,101639.78
2019-06-26T13:28:26.879Z,101640.30
2019-06-26T13:30:57.081Z,101642.53
2019-06-26T13:33:27.432Z,101645.88
2019-06-26T13:35:58.576Z,101639.53
2019-06-26T13:38:28.830Z,101645.09
2019-06-26T13:40:59.073Z,101640.13
2019-06-26T13:43:29.401Z,101636.70
2019-06-26T13:46:00.295Z,101636.33
2019-06-26T13:48:30.501Z,101637.03
2019-06-26T13:51:09.477Z,101641.77
2019-06-26T13:53:32.831Z,101644.65
2019-06-26T13:56:03.491Z,101642.57
2019-06-26T13:58:33.708Z,101647.45
2019-06-26T14:01:06.994Z,101639.33
2019-06-26T14:03:37.194Z,101638.84
2019-06-26T14:06:07.404Z,101645.56
2019-06-26T14:08:37.564Z,101643.27
2019-06-26T14:11:07.770Z,101638.12
2019-06-26T14:13:41.695Z,101639.14
2019-06-26T14:16:10.966Z,101635.10
2019-06-26T14:18:42.850Z,101643.66
2019-06-26T14:21:24.973Z,101648.46
2019-06-26T14:23:44.977Z,101648.45
2019-06-26T14:26:15.162Z,101653.02
2019-06-26T14:28:48.297Z,101652.70
2019-06-26T14:31:18.728Z,101649.31
2019-06-26T14:33:49.112Z,101646.13
2019-06-26T14:36:22.366Z,101655.55
2019-06-26T14:38:51.207Z,101663.87
2019-06-26T14:41:23.851Z,101664.91
2019-06-26T14:43:54.075Z,101657.75
2019-06-26T14:46:24.277Z,101657.07
2019-06-26T14:48:54.483Z,101669.25
2019-06-26T14:51:37.794Z,101679.16
2019-06-26T14:53:56.628Z,101677.29
2019-06-26T14:56:27.321Z,101680.50
2019-06-26T14:58:59.717Z,101682.08
2019-06-26T15:01:29.968Z,101674.88
2019-06-26T15:04:00.169Z,101680.86
2019-06-26T15:06:30.443Z,101683.50
2019-06-26T15:09:01.145Z,101674.31
2019-06-26T15:11:33.084Z,101676.52
2019-06-26T15:14:06.385Z,101687.01
2019-06-26T15:16:36.619Z,101685.65
2019-06-26T15:19:06.899Z,101691.01
2019-06-26T15:21:37.053Z,101689.91
2019-06-26T15:24:08.525Z,101697.66
2019-06-26T15:26:40.804Z,101691.81
2019-06-26T15:29:11.124Z,101695.52
2019-06-26T15:31:42.293Z,101688.39
2019-06-26T15:34:12.564Z,101694.14
2019-06-26T15:36:45.926Z,101701.10
2019-06-26T15:39:16.203Z,101697.08
2019-06-26T15:41:46.511Z,101701.80
2019-06-26T15:44:17.594Z,101702.02
2019-06-26T15:46:47.909Z,101708.78
2019-06-26T15:49:18.122Z,101697.25
2019-06-26T15:51:48.577Z,101694.96
2019-06-26T15:54:20.336Z,101687.11
2019-06-26T15:56:50.575Z,101708.17
2019-06-26T15:59:20.810Z,101708.01
2019-06-26T16:01:51.056Z,101698.91
2019-06-26T16:04:21.453Z,101706.53
2019-06-26T16:06:51.669Z,101711.48
2019-06-26T16:09:22.834Z,101713.49
2019-06-26T16:11:53.004Z,101707.91
2019-06-26T16:14:24.441Z,101711.89
2019-06-26T16:16:57.102Z,101716.78
2019-06-26T16:19:27.410Z,101716.41
2019-06-26T16:21:57.633Z,101723.97
2019-06-26T16:24:30.958Z,101725.47
2019-06-26T16:27:01.801Z,101728.17
2019-06-26T16:29:32.108Z,101724.23
2019-06-26T16:32:11.395Z,101735.45
2019-06-26T16:34:44.385Z,101733.67
2019-06-26T16:37:14.736Z,101728.02
2019-06-26T16:39:45.012Z,101741.28
2019-06-26T16:42:15.189Z,101735.37
2019-06-26T16:44:45.425Z,101737.86
2019-06-26T16:47:16.755Z,101743.00
2019-06-26T16:49:47.046Z,101744.49
2019-06-26T16:52:17.214Z,101744.16
2019-06-26T16:54:47.557Z,101745.66
2019-06-26T16:57:19.603Z,101752.33
2019-06-26T16:59:49.814Z,101750.00
2019-06-26T17:02:20.040Z,101747.67
2019-06-26T17:04:50.324Z,101765.31
2019-06-26T17:07:22.162Z,101765.52
2019-06-26T17:09:52.359Z,101778.57
2019-06-26T17:12:22.712Z,101771.98
2019-06-26T17:14:53.089Z,101778.30
2019-06-26T17:17:28.309Z,101778.11
2019-06-26T17:20:00.009Z,101778.53
2019-06-26T17:22:30.363Z,101780.74
2019-06-26T17:25:00.696Z,101781.94
2019-06-26T17:27:31.283Z,101773.27
2019-06-26T17:30:01.631Z,101785.84
2019-06-26T17:32:32.155Z,101788.48
2019-06-26T17:35:04.127Z,101793.30
2019-06-26T17:37:34.579Z,101788.35
2019-06-26T17:40:05.209Z,101791.50
2019-06-26T17:42:35.475Z,101801.00
2019-06-26T17:45:06.821Z,101804.00
2019-06-26T17:47:37.401Z,101792.05
2019-06-26T17:50:07.884Z,101807.09
2019-06-26T17:52:38.785Z,101810.07
2019-06-26T17:55:09.466Z,101812.25
2019-06-26T17:57:41.412Z,101831.04
2019-06-26T18:00:13.125Z,101822.02
2019-06-26T18:02:43.394Z,101816.56
2019-06-26T18:05:13.667Z,101821.62
2019-06-26T18:07:44.106Z,101838.20
2019-06-26T18:10:14.735Z,101841.48
2019-06-26T18:12:45.001Z,101839.74
2019-06-26T18:15:15.345Z,101835.63
2019-06-26T18:17:45.976Z,101843.05
2019-06-26T18:20:17.921Z,101851.65
2019-06-26T18:23:02.522Z,101848.62
2019-06-26T18:25:21.527Z,101845.59
2019-06-26T18:27:51.948Z,101851.39
2019-06-26T18:30:23.024Z,101851.39
2019-06-26T18:32:53.299Z,101857.37
2019-06-26T18:35:23.527Z,101865.74
2019-06-26T18:37:54.478Z,101867.23
2019-06-26T18:40:26.363Z,101862.42
2019-06-26T18:42:56.718Z,101868.56
2019-06-26T18:45:26.915Z,101875.34
2019-06-26T18:47:57.156Z,101882.97
2019-06-26T18:50:27.505Z,101884.56
2019-06-26T18:52:57.864Z,101891.18
2019-06-26T18:55:28.126Z,101893.32
2019-06-26T18:58:00.859Z,101894.82
2019-06-26T19:00:31.331Z,101908.19
2019-06-26T19:03:01.780Z,101908.20
2019-06-26T19:05:32.108Z,101904.73
2019-06-26T19:08:02.438Z,101913.06
2019-06-26T19:10:32.961Z,101920.61
2019-06-26T19:13:03.182Z,101929.47
2019-06-26T19:15:33.662Z,101934.55
2019-06-26T19:18:04.078Z,101932.84
2019-06-26T19:20:35.373Z,101939.59
2019-06-26T19:23:05.832Z,101941.38
2019-06-26T19:25:36.050Z,101944.47
2019-06-26T19:28:08.609Z,101942.37
2019-06-26T19:30:39.136Z,101945.66
2019-06-26T19:33:10.516Z,101950.36
2019-06-26T19:35:40.721Z,101954.22
2019-06-26T19:38:11.475Z,101957.41
2019-06-26T19:40:42.394Z,101975.56
2019-06-26T19:43:13.173Z,101976.75
2019-06-26T19:45:47.097Z,101976.73
2019-06-26T19:48:17.458Z,101985.75
2019-06-26T19:50:47.766Z,101985.64
2019-06-26T19:53:18.021Z,101988.14
2019-06-26T19:55:50.428Z,101990.74
2019-06-26T19:58:22.432Z,101995.34
2019-06-26T20:00:52.773Z,101997.00
2019-06-26T20:03:23.184Z,102003.14
2019-06-26T20:05:53.516Z,102008.23
2019-06-26T20:08:23.754Z,102009.67
2019-06-26T20:10:56.452Z,102003.73
2019-06-26T20:13:26.651Z,102007.36
2019-06-26T20:15:57.344Z,102004.02
2019-06-26T20:18:27.869Z,102011.25
2019-06-26T20:20:58.376Z,102020.05
2019-06-26T20:23:31.394Z,102020.53
2019-06-26T20:26:02.396Z,102016.58
2019-06-26T20:28:33.120Z,102023.67
2019-06-26T20:31:04.749Z,102022.97
2019-06-26T20:33:35.294Z,102021.88
2019-06-26T20:36:06.993Z,102021.56
2019-06-26T20:38:37.242Z,102023.73
2019-06-26T20:41:07.538Z,102029.77
2019-06-26T20:43:37.752Z,102031.83
2019-06-26T20:46:07.993Z,102039.41
2019-06-26T20:48:38.253Z,102035.63
2019-06-26T20:51:08.507Z,102035.32
2019-06-26T20:53:39.222Z,102045.70
2019-06-26T20:56:09.540Z,102045.08
2019-06-26T20:58:41.406Z,102052.02
2019-06-26T21:01:12.759Z,102060.64
2019-06-26T21:03:43.069Z,102053.69
2019-06-26T21:06:16.061Z,102065.64
2019-06-26T21:08:47.910Z,102069.32
2019-06-26T21:11:18.273Z,102064.55
2019-06-26T21:13:48.498Z,102069.00
2019-06-26T21:16:18.862Z,102078.03
2019-06-26T21:18:49.130Z,102073.09
2019-06-26T21:21:19.516Z,102080.23
2019-06-26T21:23:53.379Z,102083.28
2019-06-26T21:26:23.627Z,102076.59
2019-06-26T21:28:53.823Z,102084.94
2019-06-26T21:31:24.024Z,102088.87
2019-06-26T21:33:54.348Z,102088.98
2019-06-26T21:36:24.546Z,102089.30
2019-06-26T21:38:54.720Z,102095.63
2019-06-26T21:41:24.971Z,102090.25
2019-06-26T21:43:55.225Z,102093.75
2019-06-26T21:46:25.495Z,102086.31
2019-06-26T21:48:55.713Z,102089.47
2019-06-26T21:51:26.993Z,102093.75
2019-06-26T21:53:57.340Z,102086.89
2019-06-26T21:56:45.166Z,102086.36
2019-06-26T21:59:33.303Z,102093.17
2019-06-26T22:02:23.724Z,102085.66
2019-06-26T22:04:55.518Z,102084.89
2019-06-26T22:07:44.875Z,102086.61
2019-06-26T22:10:19.541Z,102085.11
2019-06-26T22:12:49.886Z,102089.51
2019-06-26T22:15:20.214Z,102089.89
2019-06-26T22:17:50.704Z,102092.27
2019-06-26T22:20:21.336Z,102094.09
2019-06-26T22:22:51.670Z,102091.23
2019-06-26T22:25:21.921Z,102094.36
2019-06-26T22:27:52.063Z,102097.84
2019-06-26T22:30:22.766Z,102098.33
2019-06-26T22:32:52.962Z,102094.18
2019-06-26T22:35:23.188Z,102094.08
2019-06-26T22:37:53.411Z,102088.77
2019-06-26T22:40:23.632Z,102095.30
2019-06-26T22:42:53.857Z,102097.23
2019-06-26T22:45:26.111Z,102095.41
2019-06-26T22:47:56.333Z,102106.67
2019-06-26T22:50:26.576Z,102108.93
2019-06-26T22:52:56.744Z,102111.19
2019-06-26T22:55:29.209Z,102097.66
2019-06-26T22:57:59.280Z,102094.91
2019-06-26T23:00:29.493Z,102103.06
2019-06-26T23:02:59.761Z,102099.42
2019-06-26T23:05:29.959Z,102099.05
2019-06-26T23:08:00.309Z,102097.21
2019-06-26T23:10:30.585Z,102099.25
2019-06-26T23:13:00.873Z,102103.29
2019-06-26T23:15:31.051Z,102101.84
2019-06-26T23:18:01.444Z,102100.59
2019-06-26T23:20:31.628Z,102100.17
2019-06-26T23:23:01.809Z,102107.09
2019-06-26T23:25:31.969Z,102107.30
2019-06-26T23:28:02.169Z,102110.85
2019-06-26T23:30:33.343Z,102118.23
2019-06-26T23:33:05.176Z,102112.97
2019-06-26T23:35:35.326Z,102106.71
2019-06-26T23:38:06.574Z,102111.53
2019-06-26T23:40:36.767Z,102122.02
2019-06-26T23:43:07.125Z,102105.61
2019-06-26T23:45:38.974Z,102111.83
2019-06-26T23:48:09.313Z,102119.69
2019-06-26T23:50:39.509Z,102109.97
2019-06-26T23:53:10.547Z,102115.86
2019-06-26T23:55:40.760Z,102110.53
2019-06-26T23:58:10.965Z,102112.41
